createdAt,value
2018-05-27T06:20:24.637Z,52.20
2018-05-27T06:22:56.522Z,53.40
2018-05-27T06:25:28.413Z,53.90
2018-05-27T06:28:01.794Z,54.40
2018-05-27T06:30:33.922Z,53.90
2018-05-27T06:33:05.806Z,54.10
2018-05-27T06:35:37.715Z,53.40
2018-05-27T06:38:09.598Z,53.30
2018-05-27T06:40:42.277Z,52.50
2018-05-27T06:43:14.918Z,52.30
2018-05-27T06:45:47.026Z,52.30
2018-05-27T06:48:19.199Z,51.30
2018-05-27T06:50:51.358Z,50.10
2018-05-27T06:53:23.526Z,50.00
2018-05-27T06:55:55.418Z,50.70
2018-05-27T06:58:27.511Z,50.90
2018-05-27T07:00:59.401Z,51.70
2018-05-27T07:03:32.093Z,50.60
2018-05-27T07:06:05.080Z,50.00
2018-05-27T07:08:36.983Z,49.90
2018-05-27T07:11:08.879Z,49.50
2018-05-27T07:13:41.522Z,49.70
2018-05-27T07:16:13.421Z,49.70
2018-05-27T07:18:46.063Z,50.50
2018-05-27T07:21:18.726Z,48.60
2018-05-27T07:23:50.598Z,48.60
2018-05-27T07:26:22.487Z,47.10
2018-05-27T07:28:54.479Z,46.90
2018-05-27T07:31:26.649Z,45.80
2018-05-27T07:33:58.812Z,44.90
2018-05-27T07:36:30.702Z,44.00
2018-05-27T07:39:02.576Z,43.20
2018-05-27T07:41:34.474Z,41.80
2018-05-27T07:44:07.126Z,41.50
2018-05-27T07:46:39.061Z,41.50
2018-05-27T07:49:11.204Z,41.80
2018-05-27T07:51:43.110Z,42.60
2018-05-27T07:54:14.986Z,42.00
2018-05-27T07:56:46.893Z,41.50
2018-05-27T07:59:19.046Z,40.30
2018-05-27T08:01:50.969Z,40.60
2018-05-27T08:04:22.846Z,40.90
2018-05-27T08:06:55.510Z,40.20
2018-05-27T08:09:27.382Z,40.20
2018-05-27T08:12:00.038Z,40.00
2018-05-27T08:14:33.426Z,39.80
2018-05-27T08:17:05.338Z,39.70
2018-05-27T08:19:37.242Z,39.30
2018-05-27T08:22:09.142Z,40.20
2018-05-27T08:24:41.782Z,40.50
2018-05-27T08:27:13.669Z,40.50
2018-05-27T08:29:45.866Z,41.50
2018-05-27T08:32:17.758Z,41.50
2018-05-27T08:34:49.996Z,41.90
2018-05-27T08:37:21.907Z,42.80
2018-05-27T08:39:54.106Z,42.90
2018-05-27T08:42:26.958Z,44.60
2018-05-27T08:44:58.913Z,44.30
2018-05-27T08:47:31.040Z,44.60
2018-05-27T08:50:02.909Z,44.60
2018-05-27T08:52:34.906Z,44.70
2018-05-27T08:55:06.787Z,44.50
2018-05-27T08:57:39.442Z,43.50
2018-05-27T09:00:11.319Z,43.50
2018-05-27T09:02:43.222Z,43.00
2018-05-27T09:05:15.099Z,43.30
2018-05-27T09:07:47.003Z,42.00
2018-05-27T09:10:18.882Z,40.50
2018-05-27T09:12:51.578Z,39.60
2018-05-27T09:15:23.483Z,39.60
2018-05-27T09:17:55.442Z,39.10
2018-05-27T09:20:27.360Z,38.60
2018-05-27T09:22:59.278Z,38.90
2018-05-27T09:25:31.227Z,39.80
2018-05-27T09:28:03.133Z,40.20
2018-05-27T09:30:35.773Z,39.90
2018-05-27T09:33:07.684Z,39.80
2018-05-27T09:35:39.562Z,39.50
2018-05-27T09:38:11.554Z,38.70
2018-05-27T09:40:43.435Z,38.70
2018-05-27T09:43:16.112Z,37.90
2018-05-27T09:45:47.983Z,37.30
2018-05-27T09:48:20.645Z,38.20
2018-05-27T09:50:52.534Z,38.20
2018-05-27T09:53:25.322Z,37.40
2018-05-27T09:55:57.206Z,37.40
2018-05-27T09:58:29.349Z,37.60
2018-05-27T10:01:01.514Z,36.70
2018-05-27T10:03:33.682Z,37.20
2018-05-27T10:06:05.553Z,37.40
2018-05-27T10:08:37.458Z,39.00
2018-05-27T10:11:09.325Z,40.30
2018-05-27T10:13:41.249Z,40.80
2018-05-27T10:16:13.126Z,41.80
2018-05-27T10:18:45.026Z,40.90
2018-05-27T10:21:17.670Z,42.40
2018-05-27T10:23:49.891Z,42.30
2018-05-27T10:26:21.769Z,42.10
2018-05-27T10:28:53.666Z,43.00
2018-05-27T10:31:25.540Z,43.30
2018-05-27T10:33:57.442Z,44.10
2018-05-27T10:36:29.322Z,44.30
2018-05-27T10:39:01.214Z,44.80
2018-05-27T10:41:33.090Z,45.20
2018-05-27T10:44:05.743Z,44.40
2018-05-27T10:46:38.526Z,44.40
2018-05-27T10:49:10.431Z,44.70
2018-05-27T10:51:43.066Z,44.50
2018-05-27T10:54:14.992Z,45.10
2018-05-27T10:56:46.889Z,45.10
2018-05-27T10:59:18.782Z,44.40
2018-05-27T11:01:51.425Z,46.00
2018-05-27T11:04:23.642Z,46.00
2018-05-27T11:06:55.519Z,46.40
2018-05-27T11:09:27.417Z,47.20
2018-05-27T11:11:59.295Z,48.20
2018-05-27T11:14:32.060Z,49.00
2018-05-27T11:17:03.946Z,48.90
2018-05-27T11:19:36.619Z,53.30
2018-05-27T11:22:10.344Z,54.40
2018-05-27T11:24:42.233Z,54.40
2018-05-27T11:27:14.106Z,54.60
2018-05-27T11:29:46.070Z,54.50
2018-05-27T11:32:18.190Z,53.70
2018-05-27T11:34:50.360Z,54.70
2018-05-27T11:37:22.522Z,54.80
2018-05-27T11:39:54.427Z,54.50
2018-05-27T11:42:26.453Z,56.90
2018-05-27T11:44:58.614Z,60.10
2018-05-27T11:47:30.782Z,57.90
2018-05-27T11:50:02.690Z,60.10
2018-05-27T11:52:34.558Z,60.40
2018-05-27T11:55:06.514Z,61.50
2018-05-27T11:57:38.395Z,62.60
2018-05-27T12:00:10.294Z,63.60
2018-05-27T12:02:42.199Z,65.70
2018-05-27T12:05:14.161Z,67.80
2018-05-27T12:07:46.319Z,66.80
2018-05-27T12:10:18.210Z,67.90
2018-05-27T12:12:50.870Z,71.50
2018-05-27T12:15:22.833Z,71.30
2018-05-27T12:17:55.479Z,72.80
2018-05-27T12:20:27.458Z,72.70
2018-05-27T12:22:59.350Z,71.20
2018-05-27T12:25:31.290Z,71.90
2018-05-27T12:28:03.165Z,74.50
2018-05-27T12:30:35.173Z,75.10
2018-05-27T12:33:07.054Z,73.00
2018-05-27T12:35:38.959Z,74.10
2018-05-27T12:38:11.704Z,75.70
2018-05-27T12:40:43.936Z,75.70
2018-05-27T12:43:15.840Z,74.70
2018-05-27T12:45:48.063Z,75.60
2018-05-27T12:48:20.225Z,76.10
2018-05-27T12:50:52.130Z,75.20
2018-05-27T12:53:24.016Z,76.10
2018-05-27T12:55:55.934Z,74.80
2018-05-27T12:58:27.922Z,75.00
2018-05-27T13:00:59.818Z,75.50
2018-05-27T13:03:32.469Z,72.50
2018-05-27T13:06:04.429Z,72.40
2018-05-27T13:08:36.300Z,73.90
2018-05-27T13:11:08.253Z,72.00
2018-05-27T13:13:40.121Z,73.30
2018-05-27T13:16:12.318Z,71.90
2018-05-27T13:18:44.206Z,73.00
2018-05-27T13:21:16.115Z,73.90
2018-05-27T13:23:48.896Z,73.60
2018-05-27T13:26:20.834Z,73.60
2018-05-27T13:28:52.722Z,73.20
2018-05-27T13:31:25.469Z,73.80
2018-05-27T13:33:57.351Z,73.10
2018-05-27T13:36:29.271Z,72.80
2018-05-27T13:39:01.207Z,71.00
2018-05-27T13:41:33.094Z,70.00
2018-05-27T13:44:04.969Z,66.70
2018-05-27T13:46:36.866Z,63.30
2018-05-27T13:49:09.546Z,62.30
2018-05-27T13:51:41.435Z,62.20
2018-05-27T13:54:13.326Z,60.00
2018-05-27T13:56:45.990Z,59.40
2018-05-27T13:59:17.871Z,59.40
2018-05-27T14:01:49.769Z,56.40
2018-05-27T14:04:22.667Z,54.60
2018-05-27T14:06:54.565Z,54.50
2018-05-27T14:09:26.486Z,50.80
2018-05-27T14:11:59.150Z,51.90
2018-05-27T14:14:32.154Z,54.40
2018-05-27T14:17:04.062Z,54.40
2018-05-27T14:19:35.967Z,54.20
2018-05-27T14:22:08.861Z,50.10
2018-05-27T14:24:40.735Z,50.10
2018-05-27T14:27:12.639Z,48.20
2018-05-27T14:29:44.515Z,48.60
2018-05-27T14:32:16.504Z,46.80
2018-05-27T14:34:48.383Z,46.40
2018-05-27T14:37:20.300Z,45.50
2018-05-27T14:39:52.190Z,46.50
2018-05-27T14:42:24.078Z,48.40
2018-05-27T14:44:56.210Z,48.70
2018-05-27T14:47:28.102Z,49.20
2018-05-27T14:49:59.974Z,49.80
2018-05-27T14:52:31.995Z,51.00
2018-05-27T14:55:04.643Z,49.60
2018-05-27T14:57:36.546Z,49.50
2018-05-27T15:00:08.417Z,48.40
2018-05-27T15:02:40.330Z,49.80
2018-05-27T15:05:12.988Z,51.00
2018-05-27T15:07:44.874Z,50.40
2018-05-27T15:10:17.538Z,50.10
2018-05-27T15:12:49.438Z,50.10
2018-05-27T15:15:21.319Z,50.10
2018-05-27T15:17:53.215Z,50.80
2018-05-27T15:20:25.086Z,50.30
2018-05-27T15:22:57.010Z,50.80
2018-05-27T15:25:28.887Z,51.00
2018-05-27T15:28:00.785Z,51.60
2018-05-27T15:30:33.434Z,52.00
2018-05-27T15:33:05.440Z,52.00
2018-05-27T15:35:38.082Z,53.10
2018-05-27T15:38:10.079Z,53.10
2018-05-27T15:40:41.963Z,53.00
2018-05-27T15:43:13.863Z,54.10
2018-05-27T15:45:45.745Z,55.90
2018-05-27T15:48:18.440Z,58.10
2018-05-27T15:50:51.322Z,58.70
2018-05-27T15:53:23.231Z,58.70
2018-05-27T15:55:55.173Z,59.10
2018-05-27T15:58:27.062Z,59.60
2018-05-27T16:00:58.941Z,60.20
2018-05-27T16:03:30.855Z,60.70
2018-05-27T16:06:02.743Z,61.30
2018-05-27T16:08:34.642Z,61.70
2018-05-27T16:11:06.517Z,62.50
2018-05-27T16:13:38.414Z,62.60
2018-05-27T16:16:10.302Z,62.70
2018-05-27T16:18:43.217Z,63.30
2018-05-27T16:21:15.107Z,63.50
2018-05-27T16:23:47.010Z,63.80
2018-05-27T16:26:19.922Z,64.10
2018-05-27T16:28:51.814Z,64.00
2018-05-27T16:31:23.694Z,65.40
2018-05-27T16:33:55.586Z,66.00
2018-05-27T16:36:28.590Z,67.40
2018-05-27T16:39:00.484Z,67.40
2018-05-27T16:41:32.364Z,68.60
2018-05-27T16:44:04.576Z,70.20
2018-05-27T16:46:36.507Z,69.20
2018-05-27T16:49:08.362Z,69.10
2018-05-27T16:51:40.255Z,70.30
2018-05-27T16:54:12.190Z,70.60
2018-05-27T16:56:44.227Z,72.80
2018-05-27T16:59:16.302Z,74.70
2018-05-27T17:01:48.450Z,75.00
2018-05-27T17:04:20.484Z,74.60
2018-05-27T17:06:52.523Z,74.90
2018-05-27T17:09:24.569Z,74.60
2018-05-27T17:11:57.393Z,75.60
2018-05-27T17:14:30.132Z,75.50
2018-05-27T17:17:02.019Z,75.40
2018-05-27T17:19:33.919Z,76.30
2018-05-27T17:22:06.055Z,76.80
2018-05-27T17:24:37.962Z,77.30
2018-05-27T17:27:09.836Z,76.50
2018-05-27T17:29:42.040Z,76.70
2018-05-27T17:32:14.206Z,74.70
2018-05-27T17:34:46.112Z,75.10
2018-05-27T17:37:18.026Z,74.10
2018-05-27T17:39:50.698Z,74.40
2018-05-27T17:42:23.354Z,74.80
2018-05-27T17:44:55.430Z,74.70
2018-05-27T17:47:28.082Z,73.70
2018-05-27T17:49:59.994Z,73.70
2018-05-27T17:52:31.982Z,74.10
2018-05-27T17:55:04.039Z,74.80
2018-05-27T17:57:36.030Z,73.60
2018-05-27T18:00:08.067Z,74.40
2018-05-27T18:02:40.108Z,75.10
2018-05-27T18:05:12.051Z,73.90
2018-05-27T18:07:44.694Z,74.50
2018-05-27T18:10:16.641Z,74.40
2018-05-27T18:12:48.515Z,73.80
2018-05-27T18:15:20.415Z,73.30
2018-05-27T18:17:53.069Z,73.60
2018-05-27T18:20:24.980Z,73.50
2018-05-27T18:22:56.856Z,74.40
2018-05-27T18:25:28.751Z,74.80
2018-05-27T18:28:00.630Z,75.30
2018-05-27T18:30:33.338Z,76.80
2018-05-27T18:33:05.228Z,76.70
2018-05-27T18:35:37.128Z,76.00
2018-05-27T18:38:09.808Z,78.10
2018-05-27T18:40:41.745Z,78.00
2018-05-27T18:43:13.631Z,78.00
2018-05-27T18:45:46.537Z,80.10
2018-05-27T18:48:19.078Z,80.00
2018-05-27T18:50:51.083Z,81.50
2018-05-27T18:53:22.993Z,81.90
2018-05-27T18:55:55.206Z,81.50
2018-05-27T18:58:27.129Z,83.10
2018-05-27T19:00:59.085Z,83.70
2018-05-27T19:03:30.968Z,85.80
2018-05-27T19:06:03.627Z,86.80
2018-05-27T19:08:35.577Z,86.70
2018-05-27T19:11:07.486Z,87.30
2018-05-27T19:13:39.390Z,87.80
2018-05-27T19:16:11.290Z,89.00
2018-05-27T19:18:44.190Z,90.10
2018-05-27T19:21:17.075Z,90.70
2018-05-27T19:23:48.966Z,90.70
2018-05-27T19:26:20.858Z,90.50
2018-05-27T19:28:52.729Z,91.30
2018-05-27T19:31:25.401Z,91.90
2018-05-27T19:33:57.499Z,91.80
2018-05-27T19:36:29.396Z,92.10
2018-05-27T19:39:01.283Z,91.70
2018-05-27T19:41:33.190Z,92.50
2018-05-27T19:44:05.067Z,92.40
2018-05-27T19:46:36.967Z,92.50
2018-05-27T19:49:08.901Z,93.10
2018-05-27T19:51:41.559Z,92.70
2018-05-27T19:54:13.456Z,92.70
2018-05-27T19:56:45.359Z,92.60
2018-05-27T19:59:18.015Z,93.30
